createdAt,value
2023-07-04T00:01:22.353Z,5.60
2023-07-04T00:03:53.657Z,4.65
2023-07-04T00:06:22.997Z,5.68
2023-07-04T00:08:52.127Z,4.50
2023-07-04T00:11:21.657Z,5.07
2023-07-04T00:13:52.282Z,4.88
2023-07-04T00:16:21.578Z,5.10
2023-07-04T00:18:50.177Z,4.78
2023-07-04T00:21:20.110Z,4.35
2023-07-04T00:23:53.665Z,4.32
2023-07-04T00:26:24.396Z,4.80
2023-07-04T00:28:54.469Z,4.15
2023-07-04T00:31:26.211Z,4.25
2023-07-04T00:33:55.443Z,4.68
2023-07-04T00:36:24.184Z,5.10
2023-07-04T00:38:58.289Z,3.80
2023-07-04T00:41:29.214Z,4.00
2023-07-04T00:44:10.602Z,4.43
2023-07-04T00:46:42.922Z,3.58
2023-07-04T00:49:24.135Z,4.00
2023-07-04T00:52:04.597Z,4.45
2023-07-04T00:54:37.413Z,4.65
2023-07-04T00:57:07.814Z,4.22
2023-07-04T00:59:44.826Z,4.28
2023-07-04T01:02:16.766Z,3.50
2023-07-04T01:04:46.039Z,4.32
2023-07-04T01:07:27.313Z,3.65
2023-07-04T01:09:59.390Z,4.15
2023-07-04T01:12:31.256Z,3.38
2023-07-04T01:15:02.090Z,4.25
2023-07-04T01:17:31.368Z,3.83
2023-07-04T01:20:01.064Z,4.07
2023-07-04T01:22:38.079Z,3.90
2023-07-04T01:25:13.379Z,3.35
2023-07-04T01:27:45.611Z,3.15
2023-07-04T01:30:15.013Z,3.58
2023-07-04T01:32:44.413Z,4.30
2023-07-04T01:35:14.807Z,3.67
2023-07-04T01:37:43.060Z,3.80
2023-07-04T01:40:13.847Z,4.20
2023-07-04T01:42:44.019Z,3.35
2023-07-04T01:45:12.716Z,4.20
2023-07-04T01:47:41.388Z,3.67
2023-07-04T01:50:12.312Z,3.22
2023-07-04T01:52:42.210Z,3.40
2023-07-04T01:55:11.799Z,4.00
2023-07-04T01:57:40.435Z,3.60
2023-07-04T02:00:11.869Z,5.05
2023-07-04T02:02:58.920Z,4.35
2023-07-04T02:05:27.903Z,3.38
2023-07-04T02:07:56.026Z,4.30
2023-07-04T02:10:24.215Z,3.70
2023-07-04T02:12:52.438Z,3.95
2023-07-04T02:15:23.567Z,3.78
2023-07-04T02:17:52.056Z,3.45
2023-07-04T02:20:21.865Z,3.75
2023-07-04T02:22:50.011Z,3.58
2023-07-04T02:25:18.224Z,3.70
2023-07-04T02:27:46.719Z,3.60
2023-07-04T02:30:15.364Z,3.50
2023-07-04T02:32:44.836Z,3.78
2023-07-04T02:35:15.446Z,3.95
2023-07-04T02:37:44.700Z,4.57
2023-07-04T02:40:13.846Z,3.40
2023-07-04T02:42:42.201Z,4.25
2023-07-04T02:45:11.652Z,3.83
2023-07-04T02:47:40.286Z,3.70
2023-07-04T02:50:13.722Z,4.13
2023-07-04T02:52:43.107Z,3.42
2023-07-04T02:55:11.149Z,5.10
2023-07-04T02:57:39.281Z,3.80
2023-07-04T03:00:08.988Z,3.65
2023-07-04T03:02:38.392Z,3.65
2023-07-04T03:05:08.506Z,3.80
2023-07-04T03:07:39.143Z,3.47
2023-07-04T03:10:09.652Z,3.90
2023-07-04T03:12:37.812Z,4.20
2023-07-04T03:15:08.228Z,4.60
2023-07-04T03:17:41.545Z,3.60
2023-07-04T03:20:11.582Z,3.10
2023-07-04T03:22:43.426Z,3.38
2023-07-04T03:25:13.038Z,4.25
2023-07-04T03:27:42.403Z,3.53
2023-07-04T03:30:14.312Z,3.75
2023-07-04T03:32:45.279Z,4.05
2023-07-04T03:35:13.501Z,3.00
2023-07-04T03:37:45.734Z,3.50
2023-07-04T03:40:15.253Z,3.83
2023-07-04T03:42:43.828Z,3.53
2023-07-04T03:45:12.867Z,3.45
2023-07-04T03:47:41.400Z,3.45
2023-07-04T03:50:14.424Z,3.00
2023-07-04T03:52:46.709Z,4.07
2023-07-04T03:55:15.804Z,3.80
2023-07-04T03:57:43.768Z,3.08
2023-07-04T04:00:14.020Z,3.20
2023-07-04T04:02:57.160Z,4.07
2023-07-04T04:05:25.581Z,3.30
2023-07-04T04:07:55.141Z,3.05
2023-07-04T04:10:23.690Z,3.28
2023-07-04T04:12:51.851Z,3.20
2023-07-04T04:15:20.274Z,3.15
2023-07-04T04:17:49.270Z,2.78
2023-07-04T04:20:17.498Z,3.75
2023-07-04T04:22:46.752Z,3.85
2023-07-04T04:25:18.200Z,3.78
2023-07-04T04:27:48.230Z,3.30
2023-07-04T04:30:16.947Z,2.97
2023-07-04T04:32:46.493Z,2.97
2023-07-04T04:35:16.162Z,3.85
2023-07-04T04:37:44.288Z,3.25
2023-07-04T04:40:13.273Z,2.53
2023-07-04T04:42:45.152Z,2.92
2023-07-04T04:45:15.550Z,2.90
2023-07-04T04:47:49.960Z,2.70
2023-07-04T04:50:18.560Z,2.90
2023-07-04T04:52:46.969Z,2.70
2023-07-04T04:55:15.260Z,2.97
2023-07-04T04:57:45.011Z,3.33
2023-07-04T05:00:14.311Z,2.70
2023-07-04T05:02:42.328Z,2.60
2023-07-04T05:05:10.802Z,2.83
2023-07-04T05:07:38.869Z,2.45
2023-07-04T05:10:07.851Z,2.20
2023-07-04T05:12:36.511Z,2.38
2023-07-04T05:15:07.606Z,2.80
2023-07-04T05:17:36.117Z,2.25
2023-07-04T05:20:06.471Z,2.92
2023-07-04T05:22:35.557Z,2.50
2023-07-04T05:25:03.512Z,3.08
2023-07-04T05:27:31.733Z,2.85
2023-07-04T05:29:59.867Z,2.42
2023-07-04T05:32:29.292Z,3.20
2023-07-04T05:34:57.536Z,3.47
2023-07-04T05:37:25.804Z,2.20
2023-07-04T05:39:54.040Z,4.10
2023-07-04T05:42:22.266Z,2.83
2023-07-04T05:44:50.525Z,3.60
2023-07-04T05:47:18.880Z,3.63
2023-07-04T05:49:48.414Z,2.15
2023-07-04T05:52:16.729Z,2.78
2023-07-04T05:54:44.874Z,2.53
2023-07-04T05:57:14.280Z,2.85
2023-07-04T05:59:42.269Z,2.70
2023-07-04T06:02:10.415Z,3.15
2023-07-04T06:04:38.692Z,2.85
2023-07-04T06:07:08.449Z,3.10
2023-07-04T06:09:36.428Z,3.15
2023-07-04T06:12:05.084Z,3.30
2023-07-04T06:14:33.271Z,3.10
2023-07-04T06:17:03.507Z,3.40
2023-07-04T06:19:31.528Z,3.42
2023-07-04T06:21:59.712Z,3.70
2023-07-04T06:24:29.066Z,3.17
2023-07-04T06:26:57.280Z,4.10
2023-07-04T06:29:25.691Z,3.53
2023-07-04T06:31:53.899Z,3.67
2023-07-04T06:34:22.014Z,3.80
2023-07-04T06:36:51.336Z,4.40
2023-07-04T06:39:19.580Z,3.88
2023-07-04T06:41:50.727Z,4.72
2023-07-04T06:44:21.824Z,3.80
2023-07-04T06:46:50.141Z,3.92
2023-07-04T06:49:18.324Z,4.35
2023-07-04T06:51:46.453Z,4.22
2023-07-04T06:56:43.756Z,4.88
2023-07-04T06:59:13.274Z,3.90
2023-07-04T07:01:42.789Z,5.07
2023-07-04T07:04:13.185Z,5.05
2023-07-04T07:06:41.510Z,4.40
2023-07-04T07:09:09.667Z,4.15
2023-07-04T07:11:37.921Z,4.55
2023-07-04T07:14:06.875Z,4.18
2023-07-04T07:16:36.519Z,4.28
2023-07-04T07:19:04.679Z,6.03
2023-07-04T07:21:32.901Z,4.22
2023-07-04T07:24:03.530Z,3.70
2023-07-04T07:26:31.894Z,4.60
2023-07-04T07:29:00.156Z,4.85
2023-07-04T07:31:33.538Z,5.18
2023-07-04T07:34:05.977Z,4.68
2023-07-04T07:36:39.005Z,4.95
2023-07-04T07:39:09.736Z,4.93
2023-07-04T07:41:40.374Z,5.20
2023-07-04T07:44:09.912Z,5.05
2023-07-04T07:46:38.688Z,5.82
2023-07-04T07:49:09.487Z,4.68
2023-07-04T07:51:39.532Z,4.85
2023-07-04T07:54:08.886Z,5.32
2023-07-04T07:56:42.533Z,4.93
2023-07-04T07:59:11.122Z,5.95
2023-07-04T08:01:39.669Z,6.22
2023-07-04T08:04:11.649Z,5.70
2023-07-04T08:06:44.320Z,4.55
2023-07-04T08:09:14.905Z,4.43
2023-07-04T08:11:44.863Z,5.53
2023-07-04T08:14:13.047Z,4.70
2023-07-04T08:16:46.580Z,5.40
2023-07-04T08:19:18.114Z,4.45
2023-07-04T08:21:47.130Z,4.30
2023-07-04T08:24:16.477Z,3.75
2023-07-04T08:26:47.087Z,4.80
2023-07-04T08:29:16.260Z,5.10
2023-07-04T08:31:44.707Z,4.47
2023-07-04T08:34:13.341Z,4.60
2023-07-04T08:36:45.475Z,4.25
2023-07-04T08:39:13.904Z,4.68
2023-07-04T08:41:47.982Z,4.95
2023-07-04T08:44:19.562Z,4.78
2023-07-04T08:46:49.912Z,4.72
2023-07-04T08:49:27.096Z,5.15
2023-07-04T08:52:03.688Z,4.78
2023-07-04T08:54:33.044Z,4.35
2023-07-04T08:57:05.735Z,5.32
2023-07-04T08:59:42.956Z,5.22
2023-07-04T09:02:26.010Z,5.57
2023-07-04T09:05:01.282Z,4.82
2023-07-04T09:07:37.319Z,4.40
2023-07-04T09:10:17.424Z,5.17
2023-07-04T09:12:46.303Z,4.75
2023-07-04T09:15:24.396Z,5.10
2023-07-04T09:18:12.244Z,5.32
2023-07-04T09:20:52.298Z,4.95
2023-07-04T09:23:24.133Z,5.28
2023-07-04T09:25:58.379Z,5.45
2023-07-04T09:28:27.701Z,5.30
2023-07-04T09:30:59.556Z,5.25
2023-07-04T09:33:29.622Z,5.68
2023-07-04T09:35:59.093Z,5.95
2023-07-04T09:38:28.772Z,4.87
2023-07-04T09:41:10.855Z,5.60
2023-07-04T09:44:29.056Z,5.47
2023-07-04T09:47:00.767Z,5.07
2023-07-04T09:49:31.974Z,5.13
2023-07-04T09:52:03.007Z,5.25
2023-07-04T09:54:38.046Z,5.60
2023-07-04T09:57:22.343Z,5.72
2023-07-04T09:59:52.498Z,5.97
2023-07-04T10:02:34.727Z,6.63
2023-07-04T10:05:05.301Z,6.50
2023-07-04T10:07:34.104Z,7.35
2023-07-04T10:10:08.679Z,6.78
2023-07-04T10:12:44.613Z,7.05
2023-07-04T10:15:21.099Z,8.10
2023-07-04T10:17:49.386Z,7.65
2023-07-04T10:20:17.625Z,7.45
2023-07-04T10:22:52.638Z,7.78
2023-07-04T10:25:24.245Z,7.10
2023-07-04T10:27:56.428Z,6.30
2023-07-04T10:30:31.147Z,6.63
2023-07-04T10:33:06.105Z,7.77
2023-07-04T10:35:37.309Z,6.60
2023-07-04T10:38:11.195Z,6.93
2023-07-04T10:40:42.221Z,6.20
2023-07-04T10:43:14.625Z,6.50
2023-07-04T10:45:52.231Z,6.60
2023-07-04T10:48:33.273Z,6.20
2023-07-04T10:51:06.443Z,7.47
2023-07-04T10:53:34.707Z,7.63
2023-07-04T10:56:09.958Z,6.47
2023-07-04T10:58:43.432Z,6.70
2023-07-04T11:01:15.828Z,6.80
2023-07-04T11:03:48.965Z,6.60
2023-07-04T11:06:21.347Z,7.05
2023-07-04T11:08:51.727Z,6.53
2023-07-04T11:11:30.213Z,5.30
2023-07-04T11:14:04.444Z,7.30
2023-07-04T11:16:34.599Z,6.80
2023-07-04T11:19:07.136Z,6.85
2023-07-04T11:21:35.964Z,7.28
2023-07-04T11:24:16.637Z,6.18
2023-07-04T11:26:53.216Z,8.10
2023-07-04T11:29:24.685Z,6.80
2023-07-04T11:32:17.935Z,6.70
2023-07-04T11:34:49.256Z,6.97
2023-07-04T11:37:25.188Z,8.52
2023-07-04T11:39:57.321Z,7.50
2023-07-04T11:42:39.720Z,6.65
2023-07-04T11:45:10.236Z,7.18
2023-07-04T11:47:45.136Z,7.28
2023-07-04T11:50:17.627Z,7.18
2023-07-04T11:52:55.134Z,7.72
2023-07-04T11:55:27.456Z,8.00
2023-07-04T11:58:20.168Z,8.00
2023-07-04T12:01:06.221Z,7.47
2023-07-04T12:03:56.231Z,8.40
2023-07-04T12:07:01.153Z,7.95
2023-07-04T12:12:08.695Z,7.82
2023-07-04T12:14:40.241Z,8.35
2023-07-04T12:17:09.132Z,9.48
2023-07-04T12:19:37.138Z,8.80
2023-07-04T12:22:05.540Z,9.47
2023-07-04T12:24:33.596Z,9.57
2023-07-04T12:27:03.324Z,10.27
2023-07-04T12:32:09.523Z,10.70
2023-07-04T12:37:15.827Z,12.10
2023-07-04T12:39:47.274Z,12.30
2023-07-04T12:42:21.849Z,10.50
2023-07-04T12:44:50.346Z,12.93
2023-07-04T12:47:25.879Z,12.60
2023-07-04T12:49:57.404Z,13.17
2023-07-04T12:52:33.940Z,14.25
2023-07-04T12:55:03.803Z,16.02
2023-07-04T12:57:33.479Z,15.52
2023-07-04T13:00:27.781Z,13.73
2023-07-04T13:02:59.313Z,13.13
2023-07-04T13:05:40.635Z,15.13
2023-07-04T13:08:12.872Z,16.73
2023-07-04T13:10:41.809Z,15.63
2023-07-04T13:13:31.612Z,14.23
2023-07-04T13:16:15.413Z,17.02
2023-07-04T13:18:46.485Z,16.50
2023-07-04T13:21:28.005Z,15.85
2023-07-04T13:26:30.651Z,15.43
2023-07-04T13:34:18.721Z,17.23
2023-07-04T13:36:49.799Z,14.30
2023-07-04T13:41:52.984Z,14.15
2023-07-04T13:46:55.111Z,14.38
2023-07-04T13:49:25.195Z,15.88
2023-07-04T13:51:54.254Z,14.93
2023-07-04T13:54:23.018Z,14.90
2023-07-04T13:56:51.182Z,16.33
2023-07-04T13:59:19.597Z,15.95
2023-07-04T14:06:53.326Z,14.02
2023-07-04T14:09:23.014Z,14.10
2023-07-04T14:11:51.280Z,15.88
2023-07-04T14:21:54.999Z,16.50
2023-07-04T14:24:23.159Z,16.65
2023-07-04T14:26:51.342Z,17.17
2023-07-04T14:29:19.412Z,16.80
2023-07-04T14:31:47.628Z,17.80
2023-07-04T14:34:16.203Z,16.30
2023-07-04T14:36:44.327Z,18.23
2023-07-04T14:39:14.530Z,18.13
2023-07-04T14:44:13.534Z,18.00
2023-07-04T14:46:41.883Z,19.67
2023-07-04T14:49:10.223Z,17.70
2023-07-04T14:51:38.328Z,18.10
2023-07-04T14:54:06.694Z,17.23
2023-07-04T14:56:45.517Z,18.73
2023-07-04T14:59:18.843Z,18.73
2023-07-04T15:01:46.923Z,19.35
2023-07-04T15:04:15.112Z,19.13
2023-07-04T15:06:43.452Z,19.48
2023-07-04T15:09:11.850Z,19.80
2023-07-04T15:11:41.358Z,19.13
2023-07-04T15:14:09.421Z,20.58
2023-07-04T15:16:37.663Z,19.00
2023-07-04T15:19:06.447Z,20.17
2023-07-04T15:21:34.543Z,19.38
2023-07-04T15:24:03.666Z,18.60
2023-07-04T15:26:31.804Z,19.05
2023-07-04T15:29:01.343Z,19.45
2023-07-04T15:31:30.100Z,18.38
2023-07-04T15:33:59.368Z,17.25
2023-07-04T15:36:28.769Z,17.30
2023-07-04T15:38:57.251Z,16.17
2023-07-04T15:41:27.204Z,15.30
2023-07-04T15:43:56.085Z,16.43
2023-07-04T15:46:27.420Z,16.67
2023-07-04T15:48:56.374Z,16.20
2023-07-04T15:51:26.619Z,16.77
2023-07-04T15:53:55.033Z,18.27
2023-07-04T15:56:28.321Z,17.23
2023-07-04T15:58:57.349Z,18.63
2023-07-04T16:01:26.867Z,16.43
2023-07-04T16:03:58.468Z,16.13
2023-07-04T16:06:27.286Z,16.67
2023-07-04T16:08:56.030Z,16.17
2023-07-04T16:11:24.604Z,16.53
2023-07-04T16:13:52.867Z,15.03
2023-07-04T16:16:23.443Z,14.30
2023-07-04T16:18:53.508Z,14.93
2023-07-04T16:21:25.300Z,13.47
2023-07-04T16:23:53.941Z,15.97
2023-07-04T16:26:24.025Z,13.40
2023-07-04T16:28:53.130Z,15.57
2023-07-04T16:31:21.321Z,15.95
2023-07-04T16:33:50.288Z,15.30
2023-07-04T16:36:20.735Z,14.70
2023-07-04T16:38:48.851Z,14.07
2023-07-04T16:41:17.217Z,14.38
2023-07-04T16:43:45.352Z,15.97
2023-07-04T16:46:15.088Z,14.05
2023-07-04T16:48:43.283Z,14.60
2023-07-04T16:51:11.552Z,14.57
2023-07-04T16:53:41.243Z,15.30
2023-07-04T16:56:09.816Z,15.60
2023-07-04T16:58:38.727Z,15.88
2023-07-04T17:01:07.740Z,15.63
2023-07-04T17:03:36.373Z,14.25
2023-07-04T17:06:06.787Z,14.95
2023-07-04T17:08:37.689Z,14.67
2023-07-04T17:11:09.819Z,14.90
2023-07-04T17:13:40.244Z,15.75
2023-07-04T17:16:09.913Z,15.18
2023-07-04T17:18:38.968Z,15.50
2023-07-04T17:21:08.300Z,14.13
2023-07-04T17:23:36.737Z,14.98
2023-07-04T17:26:06.048Z,16.13
2023-07-04T17:28:35.705Z,16.30
2023-07-04T17:31:06.272Z,15.52
2023-07-04T17:33:34.776Z,15.70
2023-07-04T17:36:04.916Z,17.08
2023-07-04T17:38:34.770Z,14.63
2023-07-04T17:41:07.543Z,15.77
2023-07-04T17:43:37.530Z,16.65
2023-07-04T17:46:08.037Z,16.55
2023-07-04T17:48:37.062Z,13.97
2023-07-04T17:51:06.507Z,15.15
2023-07-04T17:53:34.940Z,15.10
2023-07-04T17:56:06.118Z,15.55
2023-07-04T17:58:35.172Z,15.73
2023-07-04T18:01:08.118Z,15.35
2023-07-04T18:03:38.331Z,16.67
2023-07-04T18:06:08.461Z,15.93
2023-07-04T18:08:38.221Z,15.73
2023-07-04T18:11:07.808Z,14.75
2023-07-04T18:13:36.919Z,16.17
2023-07-04T18:16:07.125Z,15.10
2023-07-04T18:18:35.450Z,17.48
2023-07-04T18:21:06.185Z,15.57
2023-07-04T18:23:35.168Z,15.40
2023-07-04T18:26:03.875Z,15.50
2023-07-04T18:28:34.712Z,15.25
2023-07-04T18:31:10.423Z,16.60
2023-07-04T18:33:39.722Z,15.82
2023-07-04T18:36:12.182Z,15.05
2023-07-04T18:38:41.799Z,15.10
2023-07-04T18:41:12.934Z,15.60
2023-07-04T18:43:41.582Z,16.15
2023-07-04T18:46:11.741Z,16.63
2023-07-04T18:48:39.892Z,15.85
2023-07-04T18:51:12.331Z,15.10
2023-07-04T18:53:40.958Z,15.80
2023-07-04T18:56:09.981Z,15.48
2023-07-04T18:58:40.011Z,15.15
2023-07-04T19:01:14.670Z,14.65
2023-07-04T19:03:44.602Z,16.50
2023-07-04T19:06:15.269Z,15.85
2023-07-04T19:08:45.253Z,15.75
2023-07-04T19:11:15.041Z,15.13
2023-07-04T19:13:43.928Z,17.00
2023-07-04T19:16:13.355Z,16.17
2023-07-04T19:18:41.637Z,15.23
2023-07-04T19:21:10.143Z,15.95
2023-07-04T19:23:38.162Z,16.95
2023-07-04T19:26:10.635Z,15.75
2023-07-04T19:28:38.925Z,16.58
2023-07-04T19:31:07.435Z,16.35
2023-07-04T19:33:37.062Z,15.85
2023-07-04T19:36:05.276Z,13.82
2023-07-04T19:38:33.499Z,16.02
2023-07-04T19:41:03.290Z,15.73
2023-07-04T19:43:32.379Z,15.32
2023-07-04T19:46:01.860Z,15.38
2023-07-04T19:48:32.074Z,16.02
2023-07-04T19:51:07.207Z,15.57
2023-07-04T19:53:37.116Z,14.75
2023-07-04T19:56:07.734Z,16.60
2023-07-04T19:58:36.641Z,15.52
2023-07-04T20:01:07.440Z,13.05
2023-07-04T20:03:38.174Z,15.50
2023-07-04T20:06:10.235Z,15.20
2023-07-04T20:08:40.323Z,14.20
2023-07-04T20:11:08.844Z,15.25
2023-07-04T20:13:37.193Z,15.75
2023-07-04T20:16:09.965Z,14.23
2023-07-04T20:18:39.025Z,14.15
2023-07-04T20:21:08.897Z,15.88
2023-07-04T20:23:37.596Z,14.50
2023-07-04T20:26:07.586Z,15.27
2023-07-04T20:28:37.706Z,14.38
2023-07-04T20:31:06.498Z,14.38
2023-07-04T20:33:36.376Z,13.85
2023-07-04T20:36:05.825Z,14.00
2023-07-04T20:38:36.237Z,14.85
2023-07-04T20:41:05.949Z,14.60
2023-07-04T20:43:34.628Z,15.68
2023-07-04T20:46:03.424Z,14.45
2023-07-04T20:48:31.946Z,13.57
2023-07-04T20:51:05.437Z,15.38
2023-07-04T20:53:35.293Z,14.30
2023-07-04T20:56:03.862Z,13.65
2023-07-04T20:58:32.358Z,15.82
2023-07-04T21:01:00.524Z,15.35
2023-07-04T21:03:31.037Z,13.40
2023-07-04T21:06:03.825Z,13.88
2023-07-04T21:08:32.046Z,13.88
2023-07-04T21:11:04.852Z,15.52
2023-07-04T21:13:34.141Z,16.90
2023-07-04T21:16:04.968Z,15.48
2023-07-04T21:18:33.512Z,14.57
2023-07-04T21:21:26.822Z,14.63
2023-07-04T21:23:55.334Z,14.10
2023-07-04T21:26:24.984Z,13.63
2023-07-04T21:28:53.170Z,15.65
2023-07-04T21:31:21.287Z,15.57
2023-07-04T21:33:49.680Z,13.82
2023-07-04T21:36:17.778Z,14.35
2023-07-04T21:38:47.278Z,14.85
2023-07-04T21:41:17.481Z,15.20
2023-07-04T21:43:46.964Z,14.55
2023-07-04T21:46:15.054Z,13.73
2023-07-04T21:48:43.223Z,14.30
2023-07-04T21:51:11.303Z,13.88
2023-07-04T21:53:40.388Z,14.95
2023-07-04T21:56:08.660Z,14.75
2023-07-04T21:58:37.174Z,15.30
2023-07-04T22:01:08.233Z,14.88
2023-07-04T22:03:38.876Z,15.82
2023-07-04T22:06:09.128Z,15.75
2023-07-04T22:08:39.735Z,14.07
2023-07-04T22:11:10.323Z,14.85
2023-07-04T22:13:38.698Z,14.73
2023-07-04T22:16:10.190Z,15.30
2023-07-04T22:18:39.559Z,13.35
2023-07-04T22:21:09.856Z,15.15
2023-07-04T22:23:39.102Z,14.75
2023-07-04T22:26:08.262Z,13.52
2023-07-04T22:28:36.930Z,16.77
2023-07-04T22:31:07.396Z,15.70
2023-07-04T22:33:44.229Z,14.80
2023-07-04T22:36:12.743Z,14.80
2023-07-04T22:38:40.828Z,13.98
2023-07-04T22:41:09.103Z,15.65
2023-07-04T22:43:37.137Z,15.98
2023-07-04T22:46:05.217Z,15.25
2023-07-04T22:48:33.411Z,14.52
2023-07-04T22:51:04.975Z,14.98
2023-07-04T22:53:33.029Z,14.00
2023-07-04T22:56:05.813Z,14.35
2023-07-04T22:58:35.804Z,16.70
2023-07-04T23:01:11.217Z,15.40
2023-07-04T23:03:40.183Z,16.45
2023-07-04T23:06:11.365Z,13.20
2023-07-04T23:08:39.775Z,15.82
2023-07-04T23:11:07.872Z,16.05
2023-07-04T23:13:36.309Z,15.90
2023-07-04T23:23:15.260Z,15.68
2023-07-04T23:25:43.615Z,15.52
2023-07-04T23:28:11.784Z,16.98
2023-07-04T23:30:39.924Z,15.68
2023-07-04T23:33:07.970Z,16.63
2023-07-04T23:35:36.334Z,14.55
2023-07-04T23:38:04.769Z,16.40
2023-07-04T23:40:34.713Z,15.07
2023-07-04T23:43:02.687Z,15.13
2023-07-04T23:45:30.710Z,19.30
2023-07-04T23:47:58.909Z,16.52
2023-07-04T23:50:27.912Z,14.57
2023-07-04T23:52:55.867Z,15.95
2023-07-04T23:55:23.906Z,15.07
2023-07-04T23:57:53.389Z,16.92
